Time;durP1;ratioP1;P1;durP2;ratioP2;P2;SDS_P1;SDS_P2;PMS_P1;PMS_P2;Temp;Humidity;BMP_temperature;BMP_pressure;BME280_temperature;BME280_humidity;BME280_pressure;Samples;Min_cycle;Max_cycle;Signal;HPM_P1;HPM_P2
2023/11/18 00:00:00;;;;;;;0.00;0.00;;;;;;;8.86;100.00;100494.03;4961019;28;20023;-74
2023/11/18 00:02:25;;;;;;;0.00;0.00;;;;;;;8.98;100.00;100499.38;4933623;28;20099;-76
2023/11/18 00:04:51;;;;;;;0.00;0.00;;;;;;;8.97;100.00;100488.72;4948106;28;20064;-75
2023/11/18 00:07:17;;;;;;;0.00;0.00;;;;;;;9.01;100.00;100484.38;4957069;28;20023;-74
2023/11/18 00:09:45;;;;;;;0.00;0.00;;;;;;;9.12;100.00;100482.63;4954711;28;20030;-73
2023/11/18 00:12:14;;;;;;;0.10;0.10;;;;;;;9.15;100.00;100482.91;4947981;28;20117;-73
2023/11/18 00:14:40;;;;;;;0.00;0.00;;;;;;;9.24;100.00;100480.56;4917159;28;20130;-74
2023/11/18 00:17:05;;;;;;;0.00;0.00;;;;;;;9.07;100.00;100453.38;4925935;28;20035;-77
2023/11/18 00:19:31;;;;;;;0.00;0.00;;;;;;;9.16;100.00;100432.75;4952531;28;20022;-74
2023/11/18 00:21:56;;;;;;;0.00;0.00;;;;;;;9.18;100.00;100432.47;4931907;28;20030;-73
2023/11/18 00:24:22;;;;;;;0.00;0.00;;;;;;;9.30;100.00;100462.34;4911688;28;20023;-73
2023/11/18 00:26:47;;;;;;;0.00;0.00;;;;;;;9.17;100.00;100458.94;4965017;28;20062;-75
2023/11/18 00:29:13;;;;;;;0.00;0.00;;;;;;;9.19;100.00;100440.41;4938424;28;20465;-74
2023/11/18 00:31:38;;;;;;;0.00;0.00;;;;;;;9.34;100.00;100458.03;4943947;28;20071;-75
2023/11/18 00:34:04;;;;;;;0.00;0.00;;;;;;;9.32;100.00;100427.44;4921361;28;20035;-74
2023/11/18 00:36:29;;;;;;;0.00;0.00;;;;;;;9.26;100.00;100429.31;4937725;28;20031;-74
2023/11/18 00:38:54;;;;;;;0.00;0.00;;;;;;;9.31;100.00;100426.59;4916957;28;20023;-74
2023/11/18 00:41:21;;;;;;;0.00;0.00;;;;;;;9.26;100.00;100430.13;4959813;28;20041;-74
2023/11/18 00:43:47;;;;;;;0.00;0.00;;;;;;;9.43;100.00;100456.47;4939305;28;20165;-74
2023/11/18 00:46:12;;;;;;;0.00;0.00;;;;;;;9.44;100.00;100441.75;4954731;28;20122;-75
2023/11/18 00:48:38;;;;;;;0.00;0.00;;;;;;;9.45;100.00;100432.50;4945133;28;20062;-74
2023/11/18 00:51:04;;;;;;;0.00;0.00;;;;;;;9.39;100.00;100415.25;4963892;28;20030;-74
2023/11/18 00:53:29;;;;;;;0.00;0.00;;;;;;;9.33;100.00;100399.06;4950012;28;20037;-74
2023/11/18 00:55:55;;;;;;;0.00;0.00;;;;;;;9.31;100.00;100399.31;4931712;29;20369;-75
2023/11/18 00:58:20;;;;;;;0.00;0.00;;;;;;;9.40;100.00;100396.94;4941457;28;20512;-73
2023/11/18 01:00:46;;;;;;;0.00;0.00;;;;;;;9.39;100.00;100395.31;4920593;28;20035;-74
2023/11/18 01:03:11;;;;;;;0.00;0.00;;;;;;;9.47;100.00;100386.63;4929061;28;20049;-73
2023/11/18 01:05:37;;;;;;;0.00;0.00;;;;;;;9.54;100.00;100400.09;4958285;28;20035;-75
2023/11/18 01:08:02;;;;;;;0.00;0.00;;;;;;;9.53;100.00;100391.06;4965308;28;20088;-75
2023/11/18 01:10:29;;;;;;;0.00;0.00;;;;;;;9.44;100.00;100370.78;4916662;28;20049;-76
2023/11/18 01:12:55;;;;;;;0.00;0.00;;;;;;;9.57;100.00;100370.34;4915607;28;20026;-75
2023/11/18 01:15:23;;;;;;;0.00;0.00;;;;;;;9.46;100.00;100344.03;4925847;28;20042;-75
2023/11/18 01:17:48;;;;;;;0.00;0.00;;;;;;;9.45;100.00;100331.50;4952938;28;20030;-73
2023/11/18 01:20:14;;;;;;;0.00;0.00;;;;;;;9.51;100.00;100349.56;4944379;28;20027;-75
2023/11/18 01:22:41;;;;;;;0.00;0.00;;;;;;;9.57;100.00;100367.63;4942348;28;20393;-74
2023/11/18 01:25:08;;;;;;;0.00;0.00;;;;;;;9.49;100.00;100343.53;4955349;28;20058;-75
2023/11/18 01:27:37;;;;;;;0.00;0.00;;;;;;;9.61;100.00;100348.81;4941646;28;20228;-74
2023/11/18 01:30:04;;;;;;;0.00;0.00;;;;;;;9.61;100.00;100346.91;4945945;28;20797;-73
2023/11/18 01:32:30;;;;;;;0.00;0.00;;;;;;;9.52;100.00;100329.38;4931559;28;21014;-75
2023/11/18 01:34:56;;;;;;;0.00;0.00;;;;;;;9.68;100.00;100346.69;4959775;28;20035;-74
2023/11/18 01:37:23;;;;;;;0.00;0.00;;;;;;;9.58;100.00;100322.03;4945074;28;20481;-75
2023/11/18 01:39:48;;;;;;;0.00;0.00;;;;;;;9.70;100.00;100340.97;4929746;28;20037;-74
2023/11/18 01:42:14;;;;;;;0.00;0.00;;;;;;;9.75;100.00;100349.19;4924923;28;20035;-76
2023/11/18 01:44:40;;;;;;;0.00;0.00;;;;;;;9.83;100.00;100350.59;4940810;28;20070;-75
2023/11/18 01:47:10;;;;;;;0.00;0.00;;;;;;;9.84;100.00;100341.31;4920296;28;20034;-74
2023/11/18 01:49:39;;;;;;;0.00;0.00;;;;;;;9.84;100.00;100336.69;4930672;28;20117;-74
2023/11/18 01:52:07;;;;;;;0.00;0.00;;;;;;;9.81;100.00;100326.28;4945183;28;20035;-74
2023/11/18 01:54:39;;;;;;;0.00;0.00;;;;;;;9.75;100.00;100319.13;4928325;28;20055;-74
2023/11/18 01:57:09;;;;;;;0.00;0.00;;;;;;;9.92;100.00;100332.63;4960624;28;20121;-75
2023/11/18 01:59:34;;;;;;;0.00;0.00;;;;;;;9.94;100.00;100325.84;4930129;28;20027;-74
2023/11/18 02:02:01;;;;;;;0.00;0.00;;;;;;;9.99;100.00;100321.47;4941305;28;20444;-77
2023/11/18 02:04:27;;;;;;;0.00;0.00;;;;;;;10.01;100.00;100308.38;4939604;28;20027;-75
2023/11/18 02:06:53;;;;;;;0.00;0.00;;;;;;;10.00;100.00;100323.13;4960164;28;20170;-73
2023/11/18 02:09:27;;;;;;;0.00;0.00;;;;;;;10.01;100.00;100311.94;4942085;28;20537;-74
2023/11/18 02:12:34;;;;;;;0.00;0.00;;;;;;;9.97;100.00;100291.69;4955848;28;20192;-73
2023/11/18 02:15:03;;;;;;;0.00;0.00;;;;;;;9.99;100.00;100283.22;4941413;28;20078;-75
2023/11/18 02:17:32;;;;;;;0.00;0.00;;;;;;;9.98;100.00;100285.13;4933119;28;20090;-74
2023/11/18 02:19:59;;;;;;;0.00;0.00;;;;;;;9.97;100.00;100278.03;4949067;28;20148;-75
2023/11/18 02:22:26;;;;;;;0.00;0.00;;;;;;;9.93;100.00;100275.00;4948311;28;20029;-74
2023/11/18 02:24:51;;;;;;;0.00;0.00;;;;;;;9.85;100.00;100259.13;4941090;28;20033;-72
2023/11/18 02:27:20;;;;;;;0.00;0.00;;;;;;;9.95;100.00;100272.81;4924075;28;20386;-74
2023/11/18 02:29:48;;;;;;;0.00;0.00;;;;;;;9.96;100.00;100263.56;4945942;28;20030;-73
2023/11/18 02:32:39;;;;;;;0.00;0.00;;;;;;;10.04;100.00;100270.41;4948789;28;20049;-73
2023/11/18 02:35:18;;;;;;;0.00;0.00;;;;;;;9.99;100.00;100253.16;4944688;28;20030;-73
2023/11/18 02:37:48;;;;;;;0.03;0.03;;;;;;;9.89;100.00;100237.56;4939682;28;20018;-74
2023/11/18 02:40:26;;;;;;;0.10;0.10;;;;;;;9.92;100.00;100217.91;4953024;28;20026;-75
2023/11/18 02:42:59;;;;;;;0.00;0.00;;;;;;;9.85;100.00;100220.88;4945244;28;20059;-74
2023/11/18 02:45:27;;;;;;;0.10;0.10;;;;;;;9.85;100.00;100229.06;4950436;28;20117;-76
2023/11/18 02:47:57;;;;;;;0.00;0.00;;;;;;;10.03;100.00;100240.63;4957590;28;21297;-75
2023/11/18 02:50:28;;;;;;;0.00;0.00;;;;;;;9.94;100.00;100219.31;4959159;28;20019;-74
2023/11/18 02:52:54;;;;;;;0.00;0.00;;;;;;;10.02;100.00;100217.16;4963040;28;20038;-75
2023/11/18 02:55:27;;;;;;;0.00;0.00;;;;;;;10.07;100.00;100225.34;4937502;28;20023;-74
2023/11/18 02:57:52;;;;;;;0.00;0.00;;;;;;;9.90;100.00;100198.22;4946114;28;20065;-75
2023/11/18 03:00:21;;;;;;;0.00;0.00;;;;;;;9.87;100.00;100188.69;4920174;28;20450;-74
2023/11/18 03:02:59;;;;;;;0.00;0.00;;;;;;;9.96;100.00;100194.44;4918725;28;20023;-75
2023/11/18 03:05:30;;;;;;;0.00;0.00;;;;;;;9.78;100.00;100154.75;4941350;28;20380;-76
2023/11/18 03:07:57;;;;;;;0.00;0.00;;;;;;;9.86;100.00;100162.44;4937576;28;20080;-75
2023/11/18 03:10:23;;;;;;;0.00;0.00;;;;;;;9.93;100.00;100165.75;4955754;28;20022;-75
2023/11/18 03:12:49;;;;;;;0.00;0.00;;;;;;;10.00;100.00;100175.59;4930793;28;20081;-74
2023/11/18 03:15:18;;;;;;;0.00;0.00;;;;;;;9.99;100.00;100149.38;4946498;28;20035;-74
2023/11/18 03:17:55;;;;;;;0.00;0.00;;;;;;;10.05;100.00;100157.31;4955146;28;20121;-73
2023/11/18 03:20:24;;;;;;;0.00;0.00;;;;;;;9.90;100.00;100130.78;4951762;28;20038;-73
2023/11/18 03:22:51;;;;;;;0.00;0.00;;;;;;;10.05;100.00;100153.78;4957392;28;20094;-74
2023/11/18 03:25:24;;;;;;;0.00;0.00;;;;;;;10.04;100.00;100149.41;4949491;28;21236;-74
2023/11/18 03:27:49;;;;;;;0.10;0.10;;;;;;;9.94;100.00;100120.97;4934777;28;20037;-75
2023/11/18 03:30:14;;;;;;;0.00;0.00;;;;;;;9.97;100.00;100116.84;4928019;28;20038;-74
2023/11/18 03:32:40;;;;;;;0.00;0.00;;;;;;;10.02;100.00;100111.41;4946256;28;20023;-74
2023/11/18 03:35:08;;;;;;;0.00;0.00;;;;;;;10.05;100.00;100129.19;4950808;28;20030;-74
2023/11/18 03:37:38;;;;;;;0.00;0.00;;;;;;;10.03;100.00;100109.50;4933638;28;20018;-74
2023/11/18 03:40:14;;;;;;;0.00;0.00;;;;;;;10.09;100.00;100108.41;4963501;28;20030;-73
2023/11/18 03:42:46;;;;;;;0.00;0.00;;;;;;;9.97;100.00;100084.06;4948805;28;20504;-76
2023/11/18 03:45:11;;;;;;;0.00;0.00;;;;;;;10.06;100.00;100093.41;4964519;28;20559;-74
2023/11/18 03:47:37;;;;;;;0.00;0.00;;;;;;;10.11;100.00;100073.47;4964236;28;20023;-75
2023/11/18 03:50:08;;;;;;;0.00;0.00;;;;;;;10.10;100.00;100071.81;4945788;28;20380;-73
2023/11/18 03:52:37;;;;;;;0.00;0.00;;;;;;;10.06;100.00;100043.38;4946498;28;20409;-74
2023/11/18 03:55:04;;;;;;;0.00;0.00;;;;;;;10.04;100.00;100034.66;4945264;28;20038;-73
2023/11/18 03:57:32;;;;;;;0.00;0.00;;;;;;;10.14;100.00;100040.94;4951047;28;20022;-74
2023/11/18 03:59:57;;;;;;;0.00;0.00;;;;;;;10.20;100.00;100057.34;4946366;28;20046;-74
2023/11/18 04:02:23;;;;;;;0.00;0.00;;;;;;;10.27;100.00;100061.44;4946115;28;21253;-74
2023/11/18 04:04:48;;;;;;;0.00;0.00;;;;;;;10.11;100.00;100019.63;4961525;28;20019;-74
2023/11/18 04:07:16;;;;;;;0.00;0.00;;;;;;;10.06;100.00;100008.72;4930624;28;20030;-72
2023/11/18 04:09:43;;;;;;;0.00;0.00;;;;;;;10.27;100.00;100031.38;4947961;28;20033;-73
2023/11/18 04:12:10;;;;;;;0.00;0.00;;;;;;;10.14;100.00;100001.88;4947940;28;20029;-73
2023/11/18 04:14:36;;;;;;;0.00;0.00;;;;;;;10.23;100.00;100011.16;4931218;28;20027;-74
2023/11/18 04:17:02;;;;;;;0.00;0.00;;;;;;;10.23;100.00;100010.34;4948385;28;20452;-74
2023/11/18 04:19:30;;;;;;;0.00;0.00;;;;;;;10.26;100.00;100010.59;4931721;28;20023;-74
2023/11/18 04:21:55;;;;;;;0.00;0.00;;;;;;;10.48;100.00;100023.19;4943434;28;20145;-73
2023/11/18 04:24:21;;;;;;;0.00;0.00;;;;;;;10.40;100.00;99991.78;4931256;28;20154;-73
2023/11/18 04:26:47;;;;;;;0.00;0.00;;;;;;;10.39;100.00;99976.47;4934052;28;20051;-73
2023/11/18 04:29:13;;;;;;;0.10;0.10;;;;;;;10.37;100.00;99972.38;4933089;28;20093;-73
2023/11/18 04:31:43;;;;;;;0.10;0.10;;;;;;;10.37;100.00;99978.66;4941289;28;20023;-74
2023/11/18 04:34:09;;;;;;;0.00;0.00;;;;;;;10.43;100.00;99983.03;4947200;28;20066;-75
2023/11/18 04:36:34;;;;;;;0.00;0.00;;;;;;;10.46;100.00;99976.19;4958644;28;20050;-74
2023/11/18 04:39:11;;;;;;;0.10;0.10;;;;;;;10.54;100.00;99972.91;4942449;28;20058;-76
2023/11/18 04:41:36;;;;;;;0.00;0.00;;;;;;;10.55;100.00;99958.13;4964537;28;20027;-74
2023/11/18 04:44:02;;;;;;;0.00;0.00;;;;;;;10.53;100.00;99948.53;4945307;28;21139;-74
2023/11/18 04:46:27;;;;;;;0.00;0.00;;;;;;;10.58;100.00;99940.34;4928495;28;20720;-73
2023/11/18 04:48:56;;;;;;;0.00;0.00;;;;;;;10.70;100.00;99945.50;4962190;28;20774;-74
2023/11/18 04:51:22;;;;;;;0.00;0.00;;;;;;;10.81;100.00;99953.38;4946652;28;20058;-74
2023/11/18 04:53:48;;;;;;;0.00;0.00;;;;;;;10.80;100.00;99949.00;4939740;28;20481;-74
2023/11/18 04:56:18;;;;;;;0.00;0.00;;;;;;;10.87;100.00;99940.53;4953538;28;20027;-73
2023/11/18 04:58:52;;;;;;;0.00;0.00;;;;;;;10.91;100.00;99935.31;4942225;28;20029;-74
2023/11/18 05:01:23;;;;;;;0.00;0.00;;;;;;;10.87;100.00;99934.25;4951531;28;20022;-76
2023/11/18 05:03:52;;;;;;;0.00;0.00;;;;;;;10.95;100.00;99934.47;4944643;28;20041;-74
2023/11/18 05:06:25;;;;;;;0.00;0.00;;;;;;;10.95;100.00;99929.00;4923772;28;20046;-75
2023/11/18 05:08:51;;;;;;;0.00;0.00;;;;;;;10.90;100.00;99907.13;4944369;28;20030;-75
2023/11/18 05:11:17;;;;;;;0.00;0.00;;;;;;;11.02;100.00;99922.41;4948564;28;20382;-73
2023/11/18 05:13:45;;;;;;;0.00;0.00;;;;;;;10.91;100.00;99900.56;4952128;28;20461;-73
2023/11/18 05:16:14;;;;;;;0.00;0.00;;;;;;;11.06;100.00;99904.34;4933828;28;20026;-73
2023/11/18 05:18:40;;;;;;;0.00;0.00;;;;;;;11.05;100.00;99894.47;4945801;28;20042;-74
2023/11/18 05:21:08;;;;;;;0.00;0.00;;;;;;;11.05;100.00;99889.00;4967745;28;20027;-74
2023/11/18 05:23:36;;;;;;;0.00;0.00;;;;;;;11.23;100.00;99896.56;4930729;28;20069;-73
2023/11/18 05:26:05;;;;;;;0.00;0.00;;;;;;;11.28;100.00;99899.25;4945903;28;20091;-76
2023/11/18 05:28:31;;;;;;;0.00;0.00;;;;;;;11.17;100.00;99864.88;4934823;28;20692;-74
2023/11/18 05:31:02;;;;;;;0.00;0.00;;;;;;;11.13;100.00;99858.31;4946933;28;20046;-74
2023/11/18 05:33:28;;;;;;;0.00;0.00;;;;;;;11.15;100.00;99853.38;4941742;28;20026;-73
2023/11/18 05:35:54;;;;;;;0.00;0.00;;;;;;;11.15;100.00;99845.97;4919467;28;20019;-73
2023/11/18 05:38:23;;;;;;;0.00;0.00;;;;;;;11.24;100.00;99859.06;4960532;28;20021;-74
2023/11/18 05:41:00;;;;;;;0.00;0.00;;;;;;;11.49;100.00;99893.63;4946720;28;20046;-74
2023/11/18 05:43:40;;;;;;;0.10;0.10;;;;;;;11.36;100.00;99862.28;4948830;28;20029;-74
2023/11/18 05:46:14;;;;;;;0.00;0.00;;;;;;;11.39;100.00;99860.88;4942324;28;20027;-75
2023/11/18 05:48:47;;;;;;;0.00;0.00;;;;;;;11.49;100.00;99860.78;4945089;28;20462;-74
2023/11/18 05:51:20;;;;;;;0.00;0.00;;;;;;;11.49;100.00;99845.19;4944241;28;20429;-74
2023/11/18 05:53:48;;;;;;;0.00;0.00;;;;;;;11.56;100.00;99839.38;4969093;28;20023;-75
2023/11/18 05:56:19;;;;;;;0.00;0.00;;;;;;;11.59;100.00;99810.59;4942938;28;20076;-74
2023/11/18 05:58:45;;;;;;;0.05;0.05;;;;;;;11.79;100.00;99845.22;4947351;28;20110;-74
2023/11/18 06:01:16;;;;;;;0.00;0.00;;;;;;;11.87;100.00;99853.63;4947893;28;20022;-74
2023/11/18 06:03:42;;;;;;;0.00;0.00;;;;;;;11.74;100.00;99805.00;4956535;28;20093;-74
2023/11/18 06:06:12;;;;;;;0.00;0.00;;;;;;;11.89;100.00;99823.19;4942661;28;20438;-74
2023/11/18 06:08:41;;;;;;;0.00;0.00;;;;;;;11.86;100.00;99799.13;4947860;28;20109;-74
2023/11/18 06:11:15;;;;;;;0.00;0.00;;;;;;;11.95;100.00;99808.34;4972035;28;20034;-74
2023/11/18 06:13:44;;;;;;;;;;;;;;;12.13;100.00;99827.91;4957162;28;20023;-73
2023/11/18 06:16:20;;;;;;;0.00;0.00;;;;;;;12.14;100.00;99822.13;4962942;28;19992;-77
2023/11/18 06:18:49;;;;;;;0.00;0.00;;;;;;;12.21;100.00;99832.75;4961827;28;20019;-75
2023/11/18 06:21:16;;;;;;;0.00;0.00;;;;;;;12.10;100.00;99809.31;4962700;28;20035;-74
2023/11/18 06:23:42;;;;;;;0.00;0.00;;;;;;;12.07;100.00;99786.03;4928016;28;20094;-76
2023/11/18 06:26:12;;;;;;;0.00;0.00;;;;;;;12.27;100.00;99812.41;4945532;28;20048;-74
2023/11/18 06:28:44;;;;;;;0.00;0.00;;;;;;;12.30;100.00;99820.03;4963164;28;20085;-75
2023/11/18 06:31:13;;;;;;;0.00;0.00;;;;;;;12.38;100.00;99833.09;4941493;28;20034;-74
2023/11/18 06:33:43;;;;;;;0.00;0.00;;;;;;;12.23;100.00;99803.91;4954909;28;20031;-73
2023/11/18 06:36:10;;;;;;;0.00;0.00;;;;;;;12.32;100.00;99800.53;4947985;28;20038;-74
2023/11/18 06:38:37;;;;;;;0.00;0.00;;;;;;;12.33;100.00;99794.78;4946740;28;20055;-75
2023/11/18 06:41:05;;;;;;;0.00;0.00;;;;;;;12.47;100.00;99807.75;4927928;28;20474;-73
2023/11/18 06:43:41;;;;;;;0.00;0.00;;;;;;;12.32;100.00;99773.13;4962572;28;20033;-74
2023/11/18 06:46:14;;;;;;;0.00;0.00;;;;;;;12.37;100.00;99765.66;4967585;28;20030;-73
2023/11/18 06:48:40;;;;;;;0.00;0.00;;;;;;;12.36;100.00;99763.22;4963158;28;20023;-73
2023/11/18 06:51:08;;;;;;;0.00;0.00;;;;;;;12.35;100.00;99770.63;4947594;28;20034;-74
2023/11/18 06:53:34;;;;;;;0.00;0.00;;;;;;;12.57;100.00;99802.13;4932645;28;20027;-75
2023/11/18 06:56:00;;;;;;;0.00;0.00;;;;;;;12.37;100.00;99749.22;4965599;28;20031;-76
2023/11/18 06:58:35;;;;;;;0.00;0.00;;;;;;;12.45;100.00;99755.94;4948564;28;20570;-76
2023/11/18 07:01:26;;;;;;;;;;;;;;;;;;;;;
2023/11/18 07:03:52;;;;;;;0.00;0.00;;;;;;;12.51;100.00;99745.72;4957969;28;20031;-75
2023/11/18 07:06:22;;;;;;;0.00;0.00;;;;;;;12.59;100.00;99756.06;4960879;28;20081;-74
2023/11/18 07:08:53;;;;;;;0.00;0.00;;;;;;;12.50;100.00;99730.38;4940627;28;20508;-74
2023/11/18 07:11:21;;;;;;;0.00;0.00;;;;;;;12.55;100.00;99725.66;4931923;28;20122;-73
2023/11/18 07:13:56;;;;;;;0.00;0.00;;;;;;;12.77;100.00;99751.66;4961526;28;20575;-74
2023/11/18 07:16:33;;;;;;;;;;;;;;;;;;;;;
2023/11/18 07:19:55;;;;;;;;;;;;;;;;;;;;;
2023/11/18 07:22:44;;;;;;;0.00;0.00;;;;;;;12.58;100.00;99705.03;4961719;28;20045;-75
2023/11/18 07:32:10;;;;;;;0.00;0.00;;;;;;;12.56;100.00;99696.31;4867926;29;20056;-74
2023/11/18 07:34:41;;;;;;;0.00;0.00;;;;;;;12.74;100.00;99730.31;4849492;29;20084;-74
2023/11/18 07:37:26;;;;;;;;;;;;;;;;;;;;;
2023/11/18 07:39:53;;;;;;;0.00;0.00;;;;;;;12.70;100.00;99721.88;4935432;28;20037;-74
2023/11/18 07:42:29;;;;;;;0.08;0.08;;;;;;;12.87;100.00;99739.72;4941335;28;20030;-76
2023/11/18 07:44:57;;;;;;;0.00;0.00;;;;;;;12.91;100.00;99741.59;4944334;28;20034;-76
2023/11/18 07:47:27;;;;;;;0.00;0.00;;;;;;;13.05;100.00;99755.38;4927497;28;21315;-75
2023/11/18 07:50:24;;;;;;;0.00;0.00;;;;;;;12.92;100.00;99736.91;4947996;28;20043;-75
2023/11/18 07:56:52;;;;;;;;;;;;;;;;;;;;;
2023/11/18 07:59:09;;;;;;;0.00;0.00;;;;;;;12.79;100.00;99693.75;4941805;28;20030;-76
2023/11/18 08:02:12;;;;;;;;;;;;;;;;;;;;;
2023/11/18 08:08:38;;;;;;;0.00;0.00;;;;;;;13.21;100.00;99733.94;4883785;29;20135;-78
2023/11/18 08:17:52;;;;;;;;;;;;;;;;;;;;;
2023/11/18 08:20:41;;;;;;;0.00;0.00;;;;;;;13.25;100.00;99747.91;4863880;29;20408;-74
2023/11/18 08:23:42;;;;;;;;;;;;;;;;;;;;;
2023/11/18 08:29:55;;;;;;;;;;;;;;;;;;;;;
2023/11/18 08:32:23;;;;;;;0.00;0.00;;;;;;;13.02;100.00;99720.25;4829071;29;20400;-75
2023/11/18 08:35:05;;;;;;;0.00;0.00;;;;;;;13.11;100.00;99717.66;4802176;29;20044;-75
2023/11/18 08:37:52;;;;;;;;;;;;;;;;;;;;;
2023/11/18 08:40:27;;;;;;;0.00;0.00;;;;;;;13.25;100.00;99723.19;4871005;29;20053;-77
2023/11/18 08:43:05;;;;;;;;;;;;;;;;;;;;;
2023/11/18 08:46:16;;;;;;;;;;;;;;;;;;;;;
2023/11/18 08:48:33;;;;;;;0.00;0.00;;;;;;;13.25;100.00;99713.00;4949905;28;20086;-79
2023/11/18 08:51:41;;;;;;;0.00;0.00;;;;;;;13.35;100.00;99701.06;4946472;28;20109;-80
2023/11/18 08:54:22;;;;;;;0.00;0.00;;;;;;;13.44;100.00;99699.25;4944206;28;20039;-79
2023/11/18 08:56:57;;;;;;;0.00;0.00;;;;;;;13.47;100.00;99708.03;4915637;28;20027;-81
2023/11/18 08:59:35;;;;;;;0.00;0.00;;;;;;;13.41;100.00;99677.09;4948156;28;20395;-81
2023/11/18 09:02:13;;;;;;;0.00;0.00;;;;;;;13.73;100.00;99728.41;4947741;28;20117;-81
2023/11/18 09:05:07;;;;;;;;;;;;;;;;;;;;;
2023/11/18 09:07:57;;;;;;;;;;;;;;;;;;;;;
2023/11/18 09:11:48;;;;;;;;;;;;;;;;;;;;;
2023/11/18 09:14:34;;;;;;;0.00;0.00;;;;;;;13.39;100.00;99666.41;4954178;28;20038;-79
2023/11/18 09:17:28;;;;;;;0.00;0.00;;;;;;;13.76;100.00;99716.00;4967800;28;20034;-80
2023/11/18 09:20:39;;;;;;;;;;;;;;;;;;;;;
2023/11/18 09:23:47;;;;;;;;;;;;;;;;;;;;;
2023/11/18 09:26:46;;;;;;;;;;;;;;;;;;;;;
2023/11/18 09:29:17;;;;;;;0.10;0.10;;;;;;;13.56;100.00;99678.72;4963899;28;20042;-76
2023/11/18 09:32:07;;;;;;;;;;;;;;;;;;;;;
2023/11/18 09:35:25;;;;;;;;;;;;;;;;;;;;;
2023/11/18 09:38:05;;;;;;;0.00;0.00;;;;;;;13.75;100.00;99731.63;4967435;28;20495;-77
2023/11/18 09:41:14;;;;;;;0.00;0.00;;;;;;;13.74;100.00;99767.66;4941502;28;21026;-76
2023/11/18 09:50:41;;;;;;;;;;;;;;;;;;;;;
2023/11/18 09:53:36;;;;;;;;;;;;;;;;;;;;;
2023/11/18 09:56:44;;;;;;;;;;;;;;;;;;;;;
2023/11/18 09:59:28;;;;;;;0.00;0.00;;;;;;;13.55;100.00;99701.81;4958374;28;20054;-77
2023/11/18 10:02:04;;;;;;;0.00;0.00;;;;;;;13.63;100.00;99717.59;4946215;28;20053;-76
2023/11/18 10:04:37;;;;;;;0.00;0.00;;;;;;;13.83;100.00;99712.81;4966222;28;20026;-77
2023/11/18 10:07:04;;;;;;;0.00;0.00;;;;;;;13.82;100.00;99720.25;4932564;28;20066;-77
2023/11/18 10:09:47;;;;;;;;;;;;;;;;;;;;;
2023/11/18 10:12:37;;;;;;;0.00;0.00;;;;;;;13.78;100.00;99706.31;4932455;28;20065;-76
2023/11/18 10:15:03;;;;;;;0.00;0.00;;;;;;;13.63;100.00;99678.34;4947356;28;20023;-79
2023/11/18 10:17:38;;;;;;;0.00;0.00;;;;;;;13.69;100.00;99697.16;4963931;28;20026;-77
2023/11/18 10:23:11;;;;;;;0.00;0.00;;;;;;;14.03;100.00;99737.16;4954988;28;20026;-77
2023/11/18 10:26:23;;;;;;;;;;;;;;;;;;;;;
2023/11/18 10:29:23;;;;;;;0.00;0.00;;;;;;;14.06;100.00;99725.56;4961571;28;20019;-74
2023/11/18 10:31:49;;;;;;;0.00;0.00;;;;;;;14.26;100.00;99729.00;4973991;28;20109;-77
2023/11/18 10:34:18;;;;;;;0.00;0.00;;;;;;;14.32;100.00;99716.75;4931183;28;20117;-77
2023/11/18 10:37:13;;;;;;;;;;;;;;;;;;;;;
2023/11/18 10:43:28;;;;;;;0.00;0.00;;;;;;;14.47;100.00;99749.44;4860723;28;20052;-77
2023/11/18 10:46:28;;;;;;;;;;;;;;;;;;;;;
2023/11/18 10:48:54;;;;;;;0.00;0.00;;;;;;;14.14;100.00;99711.06;4959732;28;20023;-75
2023/11/18 10:51:41;;;;;;;;;;;;;;;;;;;;;
2023/11/18 10:54:17;;;;;;;0.00;0.00;;;;;;;14.71;100.00;99740.13;4948075;28;20027;-75
2023/11/18 10:57:31;;;;;;;0.00;0.00;;;;;;;14.73;100.00;99704.03;4947614;28;20127;-77
2023/11/18 11:00:57;;;;;;;;;;;;;;;;;;;;;
2023/11/18 11:06:41;;;;;;;0.00;0.00;;;;;;;14.48;100.00;99698.81;4921674;29;21651;-77
2023/11/18 11:09:16;;;;;;;0.00;0.00;;;;;;;14.67;100.00;99719.84;4958429;28;20035;-77
2023/11/18 11:12:24;;;;;;;0.00;0.00;;;;;;;14.71;100.00;99748.38;4945920;28;20505;-77
2023/11/18 11:15:21;;;;;;;0.00;0.00;;;;;;;14.37;100.00;99691.91;4920050;28;20042;-77
2023/11/18 11:17:54;;;;;;;0.00;0.00;;;;;;;14.57;100.00;99717.31;4948800;28;20481;-76
2023/11/18 11:20:26;;;;;;;0.00;0.00;;;;;;;14.42;100.00;99716.53;4946754;28;20468;-76
2023/11/18 11:23:18;;;;;;;0.00;0.00;;;;;;;14.64;100.00;99739.75;4967566;28;20018;-76
2023/11/18 11:26:13;;;;;;;0.00;0.00;;;;;;;14.53;100.00;99717.13;4950779;28;20036;-77
2023/11/18 11:29:17;;;;;;;0.00;0.00;;;;;;;15.00;100.00;99738.91;4944260;28;20027;-77
2023/11/18 11:31:57;;;;;;;0.00;0.00;;;;;;;15.16;100.00;99745.66;4913465;28;20045;-75
2023/11/18 11:34:26;;;;;;;0.00;0.00;;;;;;;15.29;100.00;99726.66;4933746;28;20027;-75
2023/11/18 11:36:54;;;;;;;0.00;0.00;;;;;;;15.82;100.00;99728.53;4961024;28;20054;-76
2023/11/18 11:39:29;;;;;;;0.00;0.00;;;;;;;16.04;100.00;99708.34;4945689;28;20508;-75
2023/11/18 11:41:56;;;;;;;0.00;0.00;;;;;;;16.75;100.00;99751.47;4932568;28;20062;-76
2023/11/18 11:44:42;;;;;;;0.00;0.00;;;;;;;16.38;100.00;99745.44;4944972;28;20061;-77
2023/11/18 11:47:09;;;;;;;0.00;0.00;;;;;;;16.18;100.00;99724.78;4958794;28;20051;-75
2023/11/18 11:49:44;;;;;;;0.00;0.00;;;;;;;16.81;100.00;99707.97;4946396;28;20378;-77
2023/11/18 11:52:15;;;;;;;0.00;0.00;;;;;;;18.29;100.00;99679.03;4955884;28;20027;-75
2023/11/18 11:54:56;;;;;;;0.00;0.00;;;;;;;19.38;99.55;99669.09;4946611;28;20027;-77
2023/11/18 11:57:24;;;;;;;0.00;0.00;;;;;;;20.33;93.14;99694.81;4974842;28;20039;-76
2023/11/18 11:59:53;;;;;;;0.00;0.00;;;;;;;20.65;84.91;99719.16;4934933;28;20031;-75
2023/11/18 12:02:24;;;;;;;0.00;0.00;;;;;;;20.82;84.82;99696.69;4941605;28;20393;-76
2023/11/18 12:04:54;;;;;;;0.00;0.00;;;;;;;21.44;83.81;99711.06;4959797;28;20062;-75
2023/11/18 12:07:38;;;;;;;0.00;0.00;;;;;;;20.80;81.65;99709.31;4953247;28;20023;-76
2023/11/18 12:10:13;;;;;;;0.00;0.00;;;;;;;19.53;85.69;99732.22;4957824;28;20208;-75
2023/11/18 12:12:39;;;;;;;0.00;0.00;;;;;;;18.73;87.56;99725.75;4937015;28;20034;-75
2023/11/18 12:15:20;;;;;;;0.00;0.00;;;;;;;18.52;93.55;99734.06;4945125;28;20018;-75
2023/11/18 12:18:12;;;;;;;0.00;0.00;;;;;;;18.42;92.21;99728.94;4913179;28;20094;-76
2023/11/18 12:20:42;;;;;;;0.00;0.00;;;;;;;18.06;94.72;99702.63;4954716;28;20066;-76
2023/11/18 12:23:17;;;;;;;0.00;0.00;;;;;;;18.02;94.89;99696.13;4945904;28;20137;-75
2023/11/18 12:28:45;;;;;;;0.00;0.00;;;;;;;17.90;95.17;99730.84;4945623;28;20429;-75
2023/11/18 12:31:17;;;;;;;0.00;0.00;;;;;;;17.90;95.66;99733.63;4931877;28;20030;-76
2023/11/18 12:33:54;;;;;;;0.00;0.00;;;;;;;17.62;94.73;99739.56;4943568;28;20181;-76
2023/11/18 12:36:39;;;;;;;0.00;0.00;;;;;;;17.37;98.13;99741.22;4945597;28;20193;-76
2023/11/18 12:39:33;;;;;;;0.00;0.00;;;;;;;17.13;99.49;99703.09;4944666;28;20027;-75
2023/11/18 12:42:11;;;;;;;0.00;0.00;;;;;;;17.16;100.00;99702.44;4968488;28;20081;-76
2023/11/18 12:45:15;;;;;;;0.00;0.00;;;;;;;17.40;99.62;99740.56;4943212;28;20461;-75
2023/11/18 12:47:48;;;;;;;0.00;0.00;;;;;;;17.31;100.00;99714.91;4899537;28;20081;-75
2023/11/18 12:50:24;;;;;;;0.00;0.00;;;;;;;17.17;98.59;99728.94;4963813;28;20062;-77
2023/11/18 12:52:53;;;;;;;0.00;0.00;;;;;;;17.00;100.00;99734.47;4943521;28;20042;-76
2023/11/18 12:55:22;;;;;;;0.00;0.00;;;;;;;16.82;98.22;99728.94;4958350;28;20059;-77
2023/11/18 12:57:48;;;;;;;0.00;0.00;;;;;;;16.73;95.58;99722.56;4958411;28;20033;-76
2023/11/18 13:00:18;;;;;;;0.00;0.00;;;;;;;16.56;95.58;99715.91;4940677;28;20054;-76
2023/11/18 13:02:46;;;;;;;0.00;0.00;;;;;;;16.34;95.29;99713.28;4961215;28;20117;-76
2023/11/18 13:05:14;;;;;;;0.00;0.00;;;;;;;16.25;94.96;99734.53;4942971;28;20039;-76
2023/11/18 13:07:44;;;;;;;0.00;0.00;;;;;;;16.08;96.29;99716.81;4942829;28;20030;-79
2023/11/18 13:10:15;;;;;;;0.00;0.00;;;;;;;16.03;95.07;99733.47;4945435;28;20109;-78
2023/11/18 13:12:49;;;;;;;0.00;0.00;;;;;;;15.77;94.58;99703.88;4927888;29;20023;-78
2023/11/18 13:15:16;;;;;;;0.00;0.00;;;;;;;15.77;95.54;99725.91;4947845;28;20142;-79
2023/11/18 13:18:00;;;;;;;0.00;0.00;;;;;;;15.61;97.55;99717.25;4969953;28;20034;-79